Time;durP1;ratioP1;P1;durP2;ratioP2;P2;SDS_P1;SDS_P2;PMS_P1;PMS_P2;Temp;Humidity;BMP_temperature;BMP_pressure;BME280_temperature;BME280_humidity;BME280_pressure;Samples;Min_cycle;Max_cycle;Signal;HPM_P1;HPM_P2
2024/01/15 00:00:13;;;;;;;19.25;9.45;;;-0.50;99.90;;;;;;5016926;28;20088;-81
2024/01/15 00:02:38;;;;;;;21.73;10.63;;;-0.50;99.90;;;;;;5018502;27;20475;-81
2024/01/15 00:05:04;;;;;;;21.95;11.57;;;-0.50;99.90;;;;;;5019984;28;20136;-81
2024/01/15 00:07:30;;;;;;;25.35;11.18;;;-0.50;99.90;;;;;;5017095;28;20104;-80
2024/01/15 00:09:55;;;;;;;22.00;10.25;;;-0.50;99.90;;;;;;5020246;28;20049;-80
2024/01/15 00:12:21;;;;;;;20.80;10.52;;;-0.40;99.90;;;;;;5015516;28;20014;-81
2024/01/15 00:14:47;;;;;;;16.35;9.18;;;-0.50;99.90;;;;;;5015064;28;20057;-81
2024/01/15 00:17:12;;;;;;;19.88;9.50;;;-0.50;99.90;;;;;;5015527;28;20053;-83
2024/01/15 00:19:38;;;;;;;16.08;8.80;;;-0.40;99.90;;;;;;5019850;28;20022;-81
2024/01/15 00:22:04;;;;;;;18.35;9.02;;;-0.40;99.90;;;;;;5015845;28;20494;-81
2024/01/15 00:24:30;;;;;;;15.63;9.02;;;-0.40;99.90;;;;;;5018919;28;20014;-81
2024/01/15 00:26:56;;;;;;;14.82;8.40;;;-0.50;99.90;;;;;;5021525;28;20075;-81
2024/01/15 00:29:21;;;;;;;13.10;8.60;;;-0.50;99.90;;;;;;5013777;28;20068;-81
2024/01/15 00:31:47;;;;;;;18.35;8.98;;;-0.50;99.90;;;;;;5013984;28;20032;-81
2024/01/15 00:34:13;;;;;;;17.85;8.25;;;-0.50;99.90;;;;;;5013593;28;20032;-81
2024/01/15 00:36:38;;;;;;;19.13;10.02;;;-0.50;99.90;;;;;;5012819;28;20155;-80
2024/01/15 00:39:07;;;;;;;16.20;8.93;;;-0.50;99.90;;;;;;5013874;28;20033;-80
2024/01/15 00:41:33;;;;;;;15.55;8.57;;;-0.50;99.90;;;;;;5014147;28;20018;-80
2024/01/15 00:43:58;;;;;;;18.05;9.15;;;-0.50;99.90;;;;;;5015672;28;20115;-80
2024/01/15 00:46:24;;;;;;;17.75;8.00;;;-0.50;99.90;;;;;;5012791;28;20068;-81
2024/01/15 00:48:49;;;;;;;21.20;8.57;;;-0.50;99.90;;;;;;5015159;28;20083;-80
2024/01/15 00:51:15;;;;;;;16.75;9.27;;;-0.50;99.90;;;;;;5014107;28;20036;-81
2024/01/15 00:53:41;;;;;;;18.15;9.73;;;-0.50;99.90;;;;;;5015621;28;20045;-81
2024/01/15 00:56:06;;;;;;;19.10;10.88;;;-0.50;99.90;;;;;;5012782;28;20121;-80
2024/01/15 00:58:32;;;;;;;19.52;9.68;;;-0.50;99.90;;;;;;5011570;28;20448;-81
2024/01/15 01:00:57;;;;;;;16.25;8.90;;;-0.50;99.90;;;;;;5011190;28;20025;-81
2024/01/15 01:03:23;;;;;;;17.05;9.32;;;-0.50;99.90;;;;;;5015373;28;20022;-81
2024/01/15 01:05:52;;;;;;;14.00;8.38;;;-0.50;99.90;;;;;;5031998;28;20128;-81
2024/01/15 01:08:18;;;;;;;18.88;10.00;;;-0.50;99.90;;;;;;5031577;28;20104;-81
2024/01/15 01:10:43;;;;;;;13.27;8.48;;;-0.50;99.90;;;;;;5031821;28;20056;-82
2024/01/15 01:13:09;;;;;;;14.90;7.88;;;-0.50;99.90;;;;;;5029777;28;20068;-81
2024/01/15 01:15:35;;;;;;;17.55;7.95;;;-0.50;99.90;;;;;;5031448;28;20066;-81
2024/01/15 01:18:00;;;;;;;13.57;8.63;;;-0.50;99.90;;;;;;5030514;28;20061;-81
2024/01/15 01:20:26;;;;;;;13.00;7.80;;;-0.50;99.90;;;;;;5030328;28;20025;-82
2024/01/15 01:22:52;;;;;;;15.55;7.75;;;-0.50;99.90;;;;;;5029968;28;20135;-81
2024/01/15 01:25:17;;;;;;;18.55;8.82;;;-0.60;99.90;;;;;;5021162;28;20030;-81
2024/01/15 01:27:43;;;;;;;15.45;7.70;;;-0.50;99.90;;;;;;5010665;28;20018;-81
2024/01/15 01:30:09;;;;;;;12.38;7.88;;;-0.50;99.90;;;;;;5011217;28;20026;-82
2024/01/15 01:32:35;;;;;;;14.00;8.48;;;-0.50;99.90;;;;;;5011258;28;20105;-81
2024/01/15 01:35:01;;;;;;;16.30;7.85;;;-0.50;99.90;;;;;;5012313;28;20025;-82
2024/01/15 01:37:26;;;;;;;13.85;8.38;;;-0.60;99.90;;;;;;5012570;28;20028;-81
2024/01/15 01:39:52;;;;;;;13.40;7.13;;;-0.50;99.90;;;;;;5011502;28;20467;-82
2024/01/15 01:42:18;;;;;;;15.32;7.55;;;-0.60;99.90;;;;;;5012880;28;20471;-81
2024/01/15 01:44:43;;;;;;;12.95;8.85;;;-0.50;99.90;;;;;;5011444;28;20030;-81
2024/01/15 01:47:09;;;;;;;12.73;7.65;;;-0.60;99.90;;;;;;5011964;28;20025;-82
2024/01/15 01:49:35;;;;;;;14.98;8.05;;;-0.60;99.90;;;;;;5011267;28;20037;-82
2024/01/15 01:52:03;;;;;;;13.98;8.18;;;-0.60;99.90;;;;;;5011475;28;20014;-81
2024/01/15 01:54:31;;;;;;;15.48;8.02;;;-0.60;99.90;;;;;;5020827;28;20471;-82
2024/01/15 01:56:58;;;;;;;14.88;6.95;;;-0.60;99.90;;;;;;5024007;28;20022;-81
2024/01/15 01:59:27;;;;;;;12.48;7.75;;;-0.60;99.90;;;;;;5010216;28;20034;-81
2024/01/15 02:01:54;;;;;;;13.23;8.85;;;-0.60;99.90;;;;;;5014370;28;20427;-81
2024/01/15 02:04:23;;;;;;;15.27;7.65;;;-0.60;99.90;;;;;;5025896;28;20053;-81
2024/01/15 02:06:50;;;;;;;11.85;6.60;;;-0.60;99.90;;;;;;5024242;28;20017;-82
2024/01/15 02:09:15;;;;;;;13.05;7.75;;;-0.60;99.90;;;;;;5025722;28;20022;-81
2024/01/15 02:11:42;;;;;;;12.75;8.10;;;-0.60;99.90;;;;;;5018376;28;20021;-79
2024/01/15 02:14:09;;;;;;;16.60;7.63;;;-0.60;99.90;;;;;;5028589;28;20045;-80
2024/01/15 02:16:35;;;;;;;14.32;7.38;;;-0.60;99.90;;;;;;5026339;28;20442;-81
2024/01/15 02:19:00;;;;;;;15.23;8.30;;;-0.60;99.90;;;;;;5029721;28;20056;-81
2024/01/15 02:21:28;;;;;;;13.75;7.35;;;-0.70;99.90;;;;;;5026684;28;20040;-81
2024/01/15 02:23:54;;;;;;;14.27;7.22;;;-0.70;99.90;;;;;;5029397;28;20018;-81
2024/01/15 02:26:21;;;;;;;14.82;7.00;;;-0.80;99.90;;;;;;5027700;28;20030;-80
2024/01/15 02:28:47;;;;;;;12.07;7.22;;;-0.70;99.90;;;;;;5029424;28;20028;-80
2024/01/15 02:31:13;;;;;;;12.73;6.25;;;-0.70;99.90;;;;;;5027809;28;20399;-81
2024/01/15 02:33:38;;;;;;;15.23;6.65;;;-0.80;99.90;;;;;;5029382;28;20025;-80
2024/01/15 02:36:04;;;;;;;11.30;6.28;;;-0.70;99.90;;;;;;5026460;28;20022;-79
2024/01/15 02:38:30;;;;;;;10.15;6.32;;;-0.70;99.90;;;;;;5027626;28;20033;-79
2024/01/15 02:40:55;;;;;;;13.05;6.75;;;-0.70;99.90;;;;;;5027677;28;20021;-80
2024/01/15 02:43:21;;;;;;;8.02;5.30;;;-0.70;99.90;;;;;;5029244;28;20402;-79
2024/01/15 02:45:47;;;;;;;10.75;6.35;;;-0.70;99.90;;;;;;5027523;28;20053;-79
2024/01/15 02:48:12;;;;;;;8.23;5.70;;;-0.70;99.90;;;;;;5027761;28;20033;-81
2024/01/15 02:50:38;;;;;;;8.25;5.32;;;-0.70;99.90;;;;;;5025956;28;20025;-82
2024/01/15 02:53:04;;;;;;;12.07;7.30;;;-0.70;99.90;;;;;;5028035;28;20043;-81
2024/01/15 02:55:29;;;;;;;7.65;5.25;;;-0.70;99.90;;;;;;5026073;28;20112;-80
2024/01/15 02:57:55;;;;;;;10.25;6.30;;;-0.70;99.90;;;;;;5016042;28;20130;-80
2024/01/15 03:00:21;;;;;;;9.95;5.18;;;-0.70;99.90;;;;;;5010669;28;20028;-80
2024/01/15 03:02:47;;;;;;;9.07;5.38;;;-0.70;99.90;;;;;;5009556;28;20720;-80
2024/01/15 03:05:13;;;;;;;6.68;4.78;;;-0.70;99.90;;;;;;5009175;28;20064;-80
2024/01/15 03:07:39;;;;;;;11.27;4.70;;;-0.70;99.90;;;;;;5009527;28;20033;-81
2024/01/15 03:10:06;;;;;;;9.43;4.93;;;-0.70;99.90;;;;;;5009238;28;20060;-81
2024/01/15 03:12:31;;;;;;;8.35;4.93;;;-0.70;99.90;;;;;;5009248;28;20070;-80
2024/01/15 03:14:57;;;;;;;10.38;5.45;;;-0.70;99.90;;;;;;5009347;28;20478;-81
2024/01/15 03:17:23;;;;;;;14.70;8.27;;;-0.70;99.90;;;;;;5010669;28;20096;-80
2024/01/15 03:19:49;;;;;;;13.00;7.63;;;-0.70;99.90;;;;;;5008946;28;20112;-80
2024/01/15 03:22:16;;;;;;;11.32;6.93;;;-0.70;99.90;;;;;;5021933;28;20032;-80
2024/01/15 03:24:41;;;;;;;12.00;5.50;;;-0.70;99.90;;;;;;5010328;28;20105;-81
2024/01/15 03:27:07;;;;;;;9.85;5.80;;;-0.70;99.90;;;;;;5021669;28;20106;-82
2024/01/15 03:29:33;;;;;;;10.60;6.50;;;-0.70;99.90;;;;;;5028419;28;20040;-80
2024/01/15 03:31:59;;;;;;;12.93;6.65;;;-0.70;99.90;;;;;;5029734;28;20024;-80
2024/01/15 03:34:25;;;;;;;11.35;6.78;;;-0.70;99.90;;;;;;5029268;28;20024;-79
2024/01/15 03:36:50;;;;;;;8.20;5.40;;;-0.70;99.90;;;;;;5016281;28;20028;-80
2024/01/15 03:39:16;;;;;;;11.35;5.32;;;-0.70;99.90;;;;;;5015381;28;20521;-80
2024/01/15 03:41:42;;;;;;;6.13;4.30;;;-0.70;99.90;;;;;;5013959;28;20030;-80
2024/01/15 03:44:07;;;;;;;5.13;4.30;;;-0.70;99.90;;;;;;5008322;28;20018;-80
2024/01/15 03:46:33;;;;;;;7.60;3.78;;;-0.70;99.90;;;;;;5008697;28;20030;-80
2024/01/15 03:48:59;;;;;;;7.90;4.80;;;-0.70;99.90;;;;;;5021608;28;20113;-80
2024/01/15 03:51:25;;;;;;;7.15;5.00;;;-0.70;99.90;;;;;;5010052;28;20045;-80
2024/01/15 03:53:50;;;;;;;13.30;5.00;;;-0.70;99.90;;;;;;5010008;28;20052;-80
2024/01/15 03:56:16;;;;;;;7.28;4.47;;;-0.70;99.90;;;;;;5009033;28;20046;-79
2024/01/15 03:58:42;;;;;;;5.88;4.20;;;-0.70;99.90;;;;;;5012830;28;20030;-79
2024/01/15 04:01:11;;;;;;;9.13;4.32;;;-0.70;99.90;;;;;;5017244;28;20493;-80
2024/01/15 04:03:37;;;;;;;8.45;4.50;;;-0.70;99.90;;;;;;5014731;28;20034;-80
2024/01/15 04:06:03;;;;;;;7.55;3.45;;;-0.70;99.90;;;;;;5028248;28;20379;-81
2024/01/15 04:08:29;;;;;;;7.20;4.50;;;-0.80;99.90;;;;;;5027661;28;20112;-81
2024/01/15 04:10:55;;;;;;;8.68;5.07;;;-0.70;99.90;;;;;;5029447;28;20496;-80
2024/01/15 04:13:21;;;;;;;5.45;3.75;;;-0.70;99.90;;;;;;5025127;28;20128;-80
2024/01/15 04:15:47;;;;;;;6.07;3.55;;;-0.80;99.90;;;;;;5008482;28;20064;-81
2024/01/15 04:18:12;;;;;;;5.43;3.67;;;-0.70;99.90;;;;;;5008642;28;20026;-81
2024/01/15 04:20:38;;;;;;;6.93;3.85;;;-0.80;99.90;;;;;;5021107;28;20124;-79
2024/01/15 04:23:04;;;;;;;5.78;3.97;;;-0.80;99.90;;;;;;5009942;28;20495;-79
2024/01/15 04:25:30;;;;;;;5.65;4.20;;;-0.80;99.90;;;;;;5008951;28;20060;-80
2024/01/15 04:27:56;;;;;;;8.43;4.68;;;-0.80;99.90;;;;;;5010134;28;20101;-80
2024/01/15 04:30:22;;;;;;;9.20;4.32;;;-0.80;99.90;;;;;;5009382;28;20024;-80
2024/01/15 04:32:47;;;;;;;7.70;4.80;;;-0.80;99.90;;;;;;5008753;28;20057;-80
2024/01/15 04:35:13;;;;;;;5.47;3.88;;;-0.80;99.90;;;;;;5008878;28;20018;-80
2024/01/15 04:37:39;;;;;;;6.95;3.85;;;-0.80;99.90;;;;;;5009541;28;20053;-81
2024/01/15 04:40:06;;;;;;;7.32;3.97;;;-0.80;99.90;;;;;;5011080;28;20145;-81
2024/01/15 04:42:32;;;;;;;9.32;4.30;;;-0.80;99.90;;;;;;5012819;28;20505;-81
2024/01/15 04:44:57;;;;;;;7.95;4.22;;;-0.80;99.90;;;;;;5011001;28;20033;-81
2024/01/15 04:47:23;;;;;;;10.40;4.30;;;-0.80;99.90;;;;;;5012873;28;20483;-81
2024/01/15 04:49:49;;;;;;;6.95;4.13;;;-0.80;99.90;;;;;;5011775;28;20026;-80
2024/01/15 04:52:15;;;;;;;5.80;3.97;;;-0.80;99.90;;;;;;5020730;28;20108;-80
2024/01/15 04:54:40;;;;;;;6.35;3.72;;;-0.80;99.90;;;;;;5016987;28;20018;-81
2024/01/15 04:57:06;;;;;;;6.82;4.15;;;-0.80;99.90;;;;;;5030913;28;20374;-81
2024/01/15 04:59:32;;;;;;;7.95;4.53;;;-0.80;99.90;;;;;;5015682;28;20375;-80
2024/01/15 05:01:57;;;;;;;8.60;4.45;;;-0.90;99.90;;;;;;5016371;28;20025;-80
2024/01/15 05:04:24;;;;;;;8.23;5.82;;;-0.90;99.90;;;;;;5020082;28;20053;-81
2024/01/15 05:06:50;;;;;;;7.85;5.18;;;-0.90;99.90;;;;;;5015519;28;20022;-80
2024/01/15 05:09:17;;;;;;;9.88;4.72;;;-0.90;99.90;;;;;;5021280;28;20021;-80
2024/01/15 05:11:43;;;;;;;7.90;4.43;;;-0.90;99.90;;;;;;5017111;28;20022;-81
2024/01/15 05:14:09;;;;;;;6.40;3.92;;;-0.90;99.90;;;;;;5020540;28;20096;-81
2024/01/15 05:16:35;;;;;;;5.47;4.45;;;-0.90;99.90;;;;;;5017086;28;20390;-81
2024/01/15 05:19:00;;;;;;;5.82;4.55;;;-1.00;99.90;;;;;;5021175;28;20368;-81
2024/01/15 05:21:26;;;;;;;7.63;4.47;;;-1.00;99.90;;;;;;5016785;28;20467;-81
2024/01/15 05:23:51;;;;;;;9.07;4.70;;;-1.00;99.90;;;;;;5021512;28;20024;-81
2024/01/15 05:26:17;;;;;;;11.13;5.28;;;-0.90;99.90;;;;;;5017006;28;20054;-81
2024/01/15 05:28:43;;;;;;;8.75;5.05;;;-1.00;99.90;;;;;;5015531;28;20032;-79
2024/01/15 05:31:09;;;;;;;13.45;6.45;;;-1.00;99.90;;;;;;5016467;28;20018;-79
2024/01/15 05:33:35;;;;;;;11.18;5.43;;;-1.00;99.90;;;;;;5021303;28;20536;-79
2024/01/15 05:36:01;;;;;;;12.30;6.18;;;-0.90;99.90;;;;;;5012341;28;20046;-80
2024/01/15 05:38:27;;;;;;;17.45;6.43;;;-0.90;99.90;;;;;;5021747;28;20055;-80
2024/01/15 05:40:53;;;;;;;14.48;5.65;;;-0.90;99.90;;;;;;5016743;28;20064;-80
2024/01/15 05:43:19;;;;;;;10.20;5.20;;;-0.90;99.90;;;;;;5018613;28;20029;-79
2024/01/15 05:45:45;;;;;;;14.20;6.25;;;-0.90;99.90;;;;;;5031127;28;20028;-80
2024/01/15 05:48:11;;;;;;;11.45;5.30;;;-0.90;99.90;;;;;;5030601;28;20045;-81
2024/01/15 05:50:36;;;;;;;23.90;8.18;;;-0.90;99.90;;;;;;5021537;28;20067;-80
2024/01/15 05:53:02;;;;;;;10.00;5.60;;;-0.90;99.90;;;;;;5024152;28;20416;-81
2024/01/15 05:55:28;;;;;;;11.52;5.78;;;-0.90;99.90;;;;;;5011988;28;20036;-79
2024/01/15 05:57:54;;;;;;;11.80;5.97;;;-0.90;99.90;;;;;;5023912;28;20391;-79
2024/01/15 06:00:19;;;;;;;11.38;5.72;;;-0.90;99.90;;;;;;5018403;28;20026;-79
2024/01/15 06:02:45;;;;;;;6.60;4.57;;;-0.90;99.90;;;;;;5018221;28;20380;-80
2024/01/15 06:05:11;;;;;;;8.52;5.10;;;-0.90;99.90;;;;;;5017833;28;20453;-79
2024/01/15 06:07:36;;;;;;;8.35;5.13;;;-0.90;99.90;;;;;;5012687;28;20026;-81
2024/01/15 06:10:04;;;;;;;8.82;5.65;;;-0.90;99.90;;;;;;5005338;28;20080;-80
2024/01/15 06:12:30;;;;;;;10.20;5.45;;;-0.90;99.90;;;;;;5015646;28;20025;-80
2024/01/15 06:14:56;;;;;;;12.60;6.13;;;-0.90;99.90;;;;;;5029677;28;20029;-81
2024/01/15 06:17:21;;;;;;;14.73;6.30;;;-0.90;99.90;;;;;;5021399;28;20033;-80
2024/01/15 06:19:47;;;;;;;8.98;4.75;;;-0.90;99.90;;;;;;5015251;28;20061;-81
2024/01/15 06:22:13;;;;;;;11.35;5.75;;;-0.90;99.90;;;;;;5018093;28;20490;-83
2024/01/15 06:24:38;;;;;;;9.73;5.50;;;-0.90;99.90;;;;;;5007238;28;20360;-81
2024/01/15 06:27:04;;;;;;;11.13;6.00;;;-0.90;99.90;;;;;;5010250;28;20048;-81
2024/01/15 06:29:30;;;;;;;9.70;5.82;;;-0.90;99.90;;;;;;5006349;28;20034;-80
2024/01/15 06:31:55;;;;;;;9.13;5.63;;;-0.80;99.90;;;;;;5008903;28;20026;-81
2024/01/15 06:34:21;;;;;;;10.23;5.00;;;-0.80;99.90;;;;;;5018155;28;20033;-79
2024/01/15 06:36:47;;;;;;;11.75;5.82;;;-0.80;99.90;;;;;;5021859;28;20505;-80
2024/01/15 06:39:12;;;;;;;8.30;5.65;;;-0.80;99.90;;;;;;5016931;28;20049;-78
2024/01/15 06:41:43;;;;;;;14.57;6.57;;;-0.90;99.90;;;;;;5016475;28;20024;-79
2024/01/15 06:44:10;;;;;;;11.77;5.35;;;-0.80;99.90;;;;;;5019681;28;20418;-78
2024/01/15 06:46:36;;;;;;;9.93;6.35;;;-0.80;99.90;;;;;;5013839;28;20017;-78
2024/01/15 06:49:01;;;;;;;12.43;5.72;;;-0.80;99.90;;;;;;5013424;28;20033;-78
2024/01/15 06:51:28;;;;;;;10.77;6.18;;;-0.80;99.90;;;;;;5013352;28;20086;-80
2024/01/15 06:53:53;;;;;;;10.20;6.47;;;-0.80;99.90;;;;;;5026052;28;20538;-80
2024/01/15 06:56:19;;;;;;;11.27;5.85;;;-0.80;99.90;;;;;;5027595;28;20104;-78
2024/01/15 06:58:45;;;;;;;11.30;6.43;;;-0.80;99.90;;;;;;5028335;28;20112;-79
2024/01/15 07:01:10;;;;;;;14.77;6.35;;;-0.80;99.90;;;;;;5027846;28;20052;-78
2024/01/15 07:03:36;;;;;;;13.93;5.97;;;-0.80;99.90;;;;;;5026500;28;20017;-79
2024/01/15 07:06:02;;;;;;;13.00;5.85;;;-0.80;99.90;;;;;;5028554;28;20390;-81
2024/01/15 07:08:27;;;;;;;11.75;7.10;;;-0.80;99.90;;;;;;5027813;28;20037;-79
2024/01/15 07:10:53;;;;;;;12.70;7.40;;;-0.80;99.90;;;;;;5025216;28;20385;-81
2024/01/15 07:13:19;;;;;;;12.55;6.63;;;-0.80;99.90;;;;;;5027637;28;20022;-80
2024/01/15 07:15:44;;;;;;;11.20;6.90;;;-0.80;99.90;;;;;;5025194;28;20034;-79
2024/01/15 07:18:10;;;;;;;12.20;6.20;;;-0.80;99.90;;;;;;5027642;28;20068;-80
2024/01/15 07:20:35;;;;;;;12.50;6.97;;;-0.80;99.90;;;;;;5027148;28;20025;-80
2024/01/15 07:23:02;;;;;;;10.93;5.38;;;-0.80;99.90;;;;;;5048263;28;20023;-81
2024/01/15 07:25:27;;;;;;;11.48;6.15;;;-0.70;99.90;;;;;;5021827;28;20034;-79
2024/01/15 07:27:54;;;;;;;10.82;7.00;;;-0.80;99.90;;;;;;5043149;28;20116;-79
2024/01/15 07:30:21;;;;;;;15.80;8.10;;;-0.80;99.90;;;;;;5022292;28;20476;-80
2024/01/15 07:32:47;;;;;;;10.30;6.85;;;-0.70;99.90;;;;;;5006296;28;20025;-81
2024/01/15 07:35:15;;;;;;;12.20;6.50;;;-0.80;99.90;;;;;;5051540;28;20033;-80
2024/01/15 07:37:40;;;;;;;15.13;7.28;;;-0.70;99.90;;;;;;5028479;28;20033;-79
2024/01/15 07:40:08;;;;;;;11.40;7.82;;;-0.70;99.90;;;;;;5026653;28;20037;-79
2024/01/15 07:42:34;;;;;;;13.77;6.22;;;-0.70;99.90;;;;;;5028499;28;20421;-80
2024/01/15 07:45:00;;;;;;;16.15;8.73;;;-0.70;99.90;;;;;;5024882;28;20125;-79
2024/01/15 07:47:27;;;;;;;12.65;6.55;;;-0.60;99.90;;;;;;5026567;28;20034;-81
2024/01/15 07:49:53;;;;;;;12.90;6.78;;;-0.60;99.90;;;;;;5022384;28;20063;-79
2024/01/15 07:52:19;;;;;;;14.43;7.75;;;-0.60;99.90;;;;;;5010055;28;20075;-79
2024/01/15 07:54:45;;;;;;;14.23;7.68;;;-0.60;99.90;;;;;;5012104;28;20046;-79
2024/01/15 07:57:11;;;;;;;14.55;7.20;;;-0.60;99.90;;;;;;5020731;28;20060;-80
2024/01/15 07:59:36;;;;;;;14.38;7.68;;;-0.60;99.90;;;;;;5008265;28;20120;-79
2024/01/15 08:02:02;;;;;;;10.00;6.75;;;-0.60;99.90;;;;;;5009977;28;20464;-80
2024/01/15 08:04:28;;;;;;;16.95;7.93;;;-0.60;99.90;;;;;;5009989;28;20050;-79
2024/01/15 08:06:54;;;;;;;12.07;6.63;;;-0.60;99.90;;;;;;5010040;28;20033;-79
2024/01/15 08:09:20;;;;;;;10.85;5.95;;;-0.60;99.90;;;;;;5009827;28;20034;-81
2024/01/15 08:11:46;;;;;;;13.15;7.32;;;-0.60;99.90;;;;;;5017310;28;20485;-80
2024/01/15 08:14:13;;;;;;;12.52;6.55;;;-0.70;99.90;;;;;;5018851;28;20014;-80
2024/01/15 08:16:39;;;;;;;14.70;7.15;;;-0.70;99.90;;;;;;5017322;28;20360;-79
2024/01/15 08:19:05;;;;;;;15.23;8.07;;;-0.60;99.90;;;;;;5017367;28;20083;-79
2024/01/15 08:21:31;;;;;;;14.95;8.10;;;-0.50;99.90;;;;;;5017031;28;20022;-81
2024/01/15 08:23:58;;;;;;;13.10;7.97;;;-0.50;99.90;;;;;;5024462;28;20518;-79
2024/01/15 08:26:24;;;;;;;13.68;7.95;;;-0.50;99.90;;;;;;5028439;28;20383;-79
2024/01/15 08:28:50;;;;;;;15.32;8.00;;;-0.50;99.90;;;;;;5021476;28;20022;-79
2024/01/15 08:31:16;;;;;;;14.77;7.95;;;-0.60;99.90;;;;;;5023247;27;20086;-80
2024/01/15 08:33:41;;;;;;;14.93;8.23;;;-0.50;99.90;;;;;;5022103;28;20476;-80
2024/01/15 08:36:07;;;;;;;15.02;7.90;;;-0.60;99.90;;;;;;5022297;28;20026;-79
2024/01/15 08:38:33;;;;;;;18.13;9.65;;;-0.70;99.90;;;;;;5022258;28;20075;-80
2024/01/15 08:41:00;;;;;;;19.92;9.02;;;-0.60;99.90;;;;;;5023886;28;20071;-79
2024/01/15 08:43:26;;;;;;;17.95;9.55;;;-0.60;99.90;;;;;;5022342;28;20052;-79
2024/01/15 08:45:52;;;;;;;16.63;9.65;;;-0.60;99.90;;;;;;5022481;28;20021;-79
2024/01/15 08:48:18;;;;;;;18.90;10.77;;;-0.60;99.90;;;;;;5022664;28;20029;-80
2024/01/15 08:50:46;;;;;;;19.45;9.18;;;-0.70;99.90;;;;;;5007652;28;20027;-81
2024/01/15 08:53:12;;;;;;;19.77;10.82;;;-0.90;99.90;;;;;;5010441;28;20034;-80
2024/01/15 08:55:38;;;;;;;20.17;11.73;;;-0.90;99.90;;;;;;5013182;28;20037;-81
2024/01/15 08:58:04;;;;;;;21.63;10.30;;;-0.80;99.90;;;;;;5012789;28;20415;-79
2024/01/15 09:00:30;;;;;;;20.55;11.35;;;-0.70;99.90;;;;;;5013240;28;20569;-81
2024/01/15 09:02:56;;;;;;;23.75;12.48;;;-0.70;99.90;;;;;;5012640;28;20108;-81
2024/01/15 09:05:22;;;;;;;44.65;17.80;;;-0.60;99.90;;;;;;5011870;28;20072;-80
2024/01/15 09:07:48;;;;;;;33.67;14.90;;;-0.40;99.90;;;;;;5011775;28;20026;-81
2024/01/15 09:10:14;;;;;;;23.95;12.57;;;-0.50;99.90;;;;;;5012740;28;20025;-81
2024/01/15 09:12:40;;;;;;;37.63;17.42;;;-0.40;99.90;;;;;;5012160;28;20026;-80
2024/01/15 09:15:06;;;;;;;40.38;18.45;;;-0.40;99.90;;;;;;5012448;28;20028;-79
2024/01/15 09:17:32;;;;;;;36.72;15.85;;;-0.40;99.90;;;;;;5011042;28;20082;-79
2024/01/15 09:19:58;;;;;;;33.38;13.88;;;-0.50;99.90;;;;;;5012143;28;20041;-78
2024/01/15 09:22:23;;;;;;;29.63;13.73;;;-0.60;99.90;;;;;;5025190;28;20025;-80
2024/01/15 09:24:49;;;;;;;27.30;13.90;;;-0.60;99.90;;;;;;5019753;28;20074;-78
2024/01/15 09:27:15;;;;;;;24.20;11.05;;;-0.60;99.90;;;;;;5029189;28;20071;-81
2024/01/15 09:29:43;;;;;;;31.48;14.63;;;-0.60;99.90;;;;;;5011003;28;20424;-78
2024/01/15 09:32:09;;;;;;;23.27;10.25;;;-0.70;99.90;;;;;;5011811;28;20142;-79
2024/01/15 09:34:35;;;;;;;28.33;14.30;;;-0.60;99.90;;;;;;5011007;28;20526;-80
2024/01/15 09:37:01;;;;;;;26.13;11.35;;;-0.50;99.90;;;;;;5010898;28;20121;-79
2024/01/15 09:39:27;;;;;;;24.88;12.25;;;-0.50;99.90;;;;;;5012227;28;20041;-81
2024/01/15 09:41:54;;;;;;;24.75;13.30;;;-0.50;99.90;;;;;;5011346;28;20024;-81
2024/01/15 09:44:20;;;;;;;25.67;11.80;;;-0.50;99.90;;;;;;5011027;28;20032;-78
2024/01/15 09:46:49;;;;;;;22.00;10.95;;;-0.50;99.90;;;;;;5012200;28;20018;-80
2024/01/15 09:49:15;;;;;;;19.95;12.32;;;-0.40;99.90;;;;;;5012492;28;20017;-78
2024/01/15 09:51:41;;;;;;;25.88;11.35;;;-0.40;99.90;;;;;;5014596;28;20029;-81
2024/01/15 09:54:08;;;;;;;24.30;12.07;;;-0.20;99.90;;;;;;5020094;28;20121;-79
2024/01/15 09:56:34;;;;;;;39.92;17.60;;;0.10;99.90;;;;;;5028005;28;20022;-79
2024/01/15 09:59:01;;;;;;;63.60;28.67;;;0.20;99.90;;;;;;5029675;28;20097;-78
2024/01/15 10:01:27;;;;;;;77.45;36.40;;;0.40;99.90;;;;;;5030006;28;20070;-81
2024/01/15 10:03:54;;;;;;;47.00;24.08;;;0.50;99.90;;;;;;5029623;28;20032;-81
2024/01/15 10:06:21;;;;;;;46.72;19.80;;;0.60;99.90;;;;;;5029409;28;20021;-79
2024/01/15 10:08:52;;;;;;;33.60;16.05;;;0.50;99.90;;;;;;5019332;28;20407;-79
2024/01/15 10:11:18;;;;;;;27.45;13.10;;;0.50;99.90;;;;;;5011641;28;20493;-80
2024/01/15 10:13:44;;;;;;;20.60;11.50;;;0.50;99.90;;;;;;5010309;28;20052;-81
2024/01/15 10:16:10;;;;;;;20.85;11.40;;;0.60;99.90;;;;;;5011484;28;20022;-78
2024/01/15 10:18:36;;;;;;;22.33;10.90;;;0.60;99.90;;;;;;5011475;28;20026;-81
2024/01/15 10:21:12;;;;;;;28.80;13.43;;;0.60;99.90;;;;;;5010949;28;20033;-78
2024/01/15 10:23:37;;;;;;;26.60;11.85;;;0.60;99.90;;;;;;5011932;28;20041;-78
2024/01/15 10:26:03;;;;;;;26.80;13.90;;;0.50;99.90;;;;;;5011017;28;20030;-78
2024/01/15 10:28:31;;;;;;;41.22;19.48;;;0.60;99.90;;;;;;5011720;28;20022;-78
2024/01/15 10:31:01;;;;;;;44.80;18.85;;;0.70;99.40;;;;;;5026213;28;20033;-78
2024/01/15 10:33:27;;;;;;;31.63;15.48;;;0.80;99.10;;;;;;5012221;28;20083;-79
2024/01/15 10:35:57;;;;;;;31.20;13.80;;;0.80;95.40;;;;;;4999493;28;20036;-80
2024/01/15 10:38:24;;;;;;;38.10;18.20;;;0.80;92.90;;;;;;5009869;28;20042;-80
2024/01/15 10:40:54;;;;;;;53.03;20.50;;;0.80;92.00;;;;;;5009591;28;20101;-79
2024/01/15 10:43:20;;;;;;;36.55;18.63;;;0.90;92.70;;;;;;5011259;28;20452;-80
2024/01/15 10:45:49;;;;;;;27.80;13.85;;;1.00;91.60;;;;;;5011232;28;20026;-80
2024/01/15 10:48:18;;;;;;;28.38;16.25;;;0.80;89.90;;;;;;5009827;28;20545;-80
2024/01/15 10:50:47;;;;;;;48.55;21.70;;;0.70;88.90;;;;;;5011150;28;20101;-81
2024/01/15 10:53:16;;;;;;;31.13;16.50;;;0.70;89.30;;;;;;5023812;28;20022;-79
2024/01/15 10:55:43;;;;;;;36.97;18.88;;;0.60;90.20;;;;;;5009653;28;20429;-79
2024/01/15 10:58:09;;;;;;;21.02;12.32;;;0.60;91.10;;;;;;5025722;28;20116;-81
2024/01/15 11:00:37;;;;;;;26.52;12.20;;;0.50;91.30;;;;;;5030110;28;20021;-80
2024/01/15 11:03:05;;;;;;;35.85;14.77;;;0.40;91.00;;;;;;5028431;28;20032;-79
2024/01/15 11:05:46;;;;;;;22.83;11.57;;;0.40;92.00;;;;;;5030251;28;20064;-80
2024/01/15 11:08:16;;;;;;;46.50;19.90;;;0.40;91.40;;;;;;5029126;28;20013;-80
2024/01/15 11:10:49;;;;;;;26.58;14.02;;;0.30;91.00;;;;;;5028490;28;20032;-81
2024/01/15 11:13:21;;;;;;;68.38;28.92;;;0.40;90.70;;;;;;5028651;28;20025;-80
2024/01/15 11:16:05;;;;;;;27.30;12.50;;;0.40;90.60;;;;;;5029357;28;20034;-78
2024/01/15 11:18:51;;;;;;;26.98;14.75;;;0.30;90.10;;;;;;5005805;28;20121;-78
2024/01/15 11:21:16;;;;;;;30.25;14.88;;;0.30;90.80;;;;;;5006437;28;20029;-78
2024/01/15 11:23:53;;;;;;;23.88;12.90;;;0.30;91.40;;;;;;5027714;28;20034;-81
2024/01/15 11:26:40;;;;;;;24.05;13.40;;;0.20;91.00;;;;;;5028342;28;20017;-79
2024/01/15 11:29:30;;;;;;;20.50;12.50;;;0.20;90.30;;;;;;5028757;28;20046;-79
2024/01/15 11:31:59;;;;;;;30.52;15.70;;;0.20;89.70;;;;;;5026504;28;20030;-80
2024/01/15 11:35:01;;;;;;;31.38;14.55;;;0.30;89.40;;;;;;5027864;28;20044;-81
2024/01/15 11:37:29;;;;;;;29.98;12.88;;;0.30;89.80;;;;;;5006062;28;20021;-78
2024/01/15 11:40:01;;;;;;;20.08;12.00;;;0.20;88.50;;;;;;5028266;28;20564;-81
2024/01/15 11:42:27;;;;;;;43.42;19.05;;;0.20;90.00;;;;;;5029403;28;20050;-80
2024/01/15 11:44:54;;;;;;;23.73;11.27;;;0.20;90.80;;;;;;5027286;28;20026;-79
2024/01/15 11:47:55;;;;;;;21.25;12.55;;;0.10;90.20;;;;;;5024652;28;20034;-80
2024/01/15 11:50:22;;;;;;;20.95;11.90;;;0.00;91.20;;;;;;5008064;28;20400;-80
2024/01/15 11:52:59;;;;;;;46.10;18.45;;;0.00;92.40;;;;;;5013776;28;20062;-81
2024/01/15 11:55:33;;;;;;;28.10;14.48;;;0.00;91.00;;;;;;5016781;28;20022;-80
2024/01/15 11:58:01;;;;;;;29.48;15.05;;;0.10;91.40;;;;;;5013690;28;20091;-81
2024/01/15 12:00:28;;;;;;;47.25;22.17;;;0.10;90.70;;;;;;5013691;28;20032;-78
2024/01/15 12:02:54;;;;;;;39.88;16.77;;;0.00;90.90;;;;;;5027290;28;20119;-79
2024/01/15 12:05:20;;;;;;;34.45;17.48;;;0.00;91.00;;;;;;5032690;28;20037;-78
2024/01/15 12:07:48;;;;;;;47.25;17.77;;;0.10;91.00;;;;;;5032175;28;20028;-78
2024/01/15 12:10:18;;;;;;;37.40;16.00;;;0.00;90.20;;;;;;5031502;28;20069;-78
2024/01/15 12:13:04;;;;;;;32.75;14.73;;;0.00;90.80;;;;;;5030339;28;20022;-79
2024/01/15 12:15:30;;;;;;;29.55;14.50;;;-0.10;90.60;;;;;;5031246;28;20070;-80
2024/01/15 12:17:58;;;;;;;30.58;13.80;;;-0.10;90.60;;;;;;5030051;28;20017;-78
2024/01/15 12:20:25;;;;;;;5.50;5.20;;;-0.10;91.30;;;;;;5019995;28;20155;-80
2024/01/15 12:22:51;;;;;;;32.78;13.75;;;-0.20;90.70;;;;;;5012813;28;20053;-80
2024/01/15 12:25:16;;;;;;;37.50;14.40;;;-0.20;90.70;;;;;;5013922;28;20102;-78
2024/01/15 12:27:42;;;;;;;37.97;15.02;;;-0.30;90.70;;;;;;5012602;28;20018;-81
2024/01/15 12:30:11;;;;;;;61.75;27.95;;;-0.20;91.50;;;;;;5019279;28;20029;-81
2024/01/15 12:32:37;;;;;;;62.45;25.23;;;-0.30;90.80;;;;;;5025158;28;20435;-81
2024/01/15 12:35:04;;;;;;;40.30;16.02;;;-0.30;90.70;;;;;;5022241;28;20067;-80